createdAt,value
2023-02-22T00:00:07.689Z,0.00
2023-02-22T00:01:08.029Z,0.00
2023-02-22T00:02:07.896Z,0.00
2023-02-22T00:03:08.164Z,0.00
2023-02-22T00:04:08.192Z,0.00
2023-02-22T00:05:08.240Z,0.00
2023-02-22T00:06:08.428Z,0.00
2023-02-22T00:07:08.506Z,0.00
2023-02-22T00:08:08.605Z,0.00
2023-02-22T00:09:08.746Z,0.00
2023-02-22T00:10:08.865Z,0.00
2023-02-22T00:11:09.199Z,0.00
2023-02-22T00:12:09.105Z,0.00
2023-02-22T00:13:09.216Z,0.00
2023-02-22T00:14:09.394Z,0.00
2023-02-22T00:15:09.434Z,0.00
2023-02-22T00:16:09.603Z,0.00
2023-02-22T00:17:09.688Z,0.00
2023-02-22T00:18:09.778Z,0.00
2023-02-22T00:19:09.943Z,0.00
2023-02-22T00:20:10.287Z,0.00
2023-02-22T00:21:10.111Z,0.00
2023-02-22T00:22:10.204Z,0.00
2023-02-22T00:23:10.438Z,0.00
2023-02-22T00:24:10.648Z,0.00
2023-02-22T00:25:10.635Z,0.00
2023-02-22T00:26:10.780Z,0.00
2023-02-22T00:27:10.975Z,0.00
2023-02-22T00:28:11.023Z,0.00
2023-02-22T00:29:11.132Z,0.00
2023-02-22T00:30:11.257Z,0.00
2023-02-22T00:31:11.340Z,0.00
2023-02-22T00:32:12.145Z,0.00
2023-02-22T00:33:11.599Z,0.00
2023-02-22T00:34:11.831Z,0.00
2023-02-22T00:35:11.841Z,0.00
2023-02-22T00:36:11.944Z,0.00
2023-02-22T00:37:12.078Z,0.00
2023-02-22T00:38:12.181Z,0.00
2023-02-22T00:39:12.449Z,0.00
2023-02-22T00:40:12.377Z,0.00
2023-02-22T00:41:12.546Z,0.00
2023-02-22T00:42:12.656Z,0.00
2023-02-22T00:43:12.751Z,0.00
2023-02-22T00:44:13.012Z,0.00
2023-02-22T00:45:13.046Z,0.00
2023-02-22T00:46:13.145Z,0.00
2023-02-22T00:47:13.245Z,0.00
2023-02-22T00:48:13.357Z,0.00
2023-02-22T00:49:13.717Z,0.00
2023-02-22T00:50:13.590Z,0.00
2023-02-22T00:51:13.941Z,0.00
2023-02-22T00:52:13.844Z,0.00
2023-02-22T00:53:14.094Z,0.00
2023-02-22T00:54:14.204Z,0.00
2023-02-22T00:55:14.214Z,0.00
2023-02-22T00:56:14.302Z,0.00
2023-02-22T00:57:14.452Z,0.00
2023-02-22T00:58:14.542Z,0.00
2023-02-22T00:59:14.854Z,0.00
2023-02-22T01:00:14.796Z,0.00
2023-02-22T01:01:15.375Z,0.00
2023-02-22T01:02:15.060Z,0.00
2023-02-22T01:03:15.158Z,0.00
2023-02-22T01:04:15.247Z,0.00
2023-02-22T01:05:15.339Z,0.00
2023-02-22T01:06:15.519Z,0.00
2023-02-22T01:07:15.635Z,0.00
2023-02-22T01:08:15.706Z,0.00
2023-02-22T01:09:16.158Z,0.00
2023-02-22T01:10:15.858Z,0.00
2023-02-22T01:11:16.478Z,0.00
2023-02-22T01:12:16.140Z,0.00
2023-02-22T01:13:16.338Z,0.00
2023-02-22T01:14:16.409Z,0.00
2023-02-22T01:15:16.436Z,0.00
2023-02-22T01:16:16.675Z,0.00
2023-02-22T01:17:16.676Z,0.00
2023-02-22T01:18:16.824Z,0.00
2023-02-22T01:19:16.914Z,0.00
2023-02-22T01:20:17.093Z,0.00
2023-02-22T01:21:17.718Z,0.00
2023-02-22T01:22:17.272Z,0.00
2023-02-22T01:23:17.553Z,0.00
2023-02-22T01:24:17.514Z,0.00
2023-02-22T01:25:17.655Z,0.00
2023-02-22T01:26:17.913Z,0.00
2023-02-22T01:27:17.907Z,0.00
2023-02-22T01:28:18.060Z,0.00
2023-02-22T01:29:18.212Z,0.00
2023-02-22T01:30:18.361Z,0.00
2023-02-22T01:31:18.867Z,0.00
2023-02-22T01:32:18.533Z,0.00
2023-02-22T01:33:18.784Z,0.00
2023-02-22T01:34:18.802Z,0.00
2023-02-22T01:35:18.891Z,0.00
2023-02-22T01:36:19.167Z,0.00
2023-02-22T01:37:19.101Z,0.00
2023-02-22T01:38:19.210Z,0.00
2023-02-22T01:39:19.339Z,0.00
2023-02-22T01:40:19.417Z,0.00
2023-02-22T01:41:19.565Z,0.00
2023-02-22T01:42:19.641Z,0.00
2023-02-22T01:43:19.807Z,0.00
2023-02-22T01:44:19.856Z,0.00
2023-02-22T01:45:19.953Z,0.00
2023-02-22T01:46:20.104Z,0.00
2023-02-22T01:47:20.244Z,0.00
2023-02-22T01:48:20.673Z,0.00
2023-02-22T01:49:20.493Z,0.00
2023-02-22T01:50:20.603Z,0.00
2023-02-22T01:51:20.705Z,0.00
2023-02-22T01:52:20.840Z,0.00
2023-02-22T01:53:21.279Z,0.00
2023-02-22T01:54:21.120Z,0.00
2023-02-22T01:55:21.199Z,0.00
2023-02-22T01:56:21.441Z,0.00
2023-02-22T01:57:21.509Z,0.00
2023-02-22T01:58:21.610Z,0.00
2023-02-22T01:59:21.810Z,0.00
2023-02-22T02:00:21.851Z,0.00
2023-02-22T02:01:22.176Z,0.00
2023-02-22T02:02:22.117Z,0.00
2023-02-22T02:03:22.256Z,0.00
2023-02-22T02:04:22.405Z,0.00
2023-02-22T02:05:22.538Z,0.00
2023-02-22T02:06:22.745Z,0.00
2023-02-22T02:07:22.840Z,0.00
2023-02-22T02:08:22.905Z,0.00
2023-02-22T02:09:23.148Z,0.00
2023-02-22T02:10:23.178Z,0.00
2023-02-22T02:11:23.457Z,0.00
2023-02-22T02:12:23.437Z,0.00
2023-02-22T02:13:23.634Z,0.00
2023-02-22T02:14:23.796Z,0.00
2023-02-22T02:15:23.788Z,0.00
2023-02-22T02:16:24.047Z,0.00
2023-02-22T02:17:23.987Z,0.00
2023-02-22T02:18:24.217Z,0.00
2023-02-22T02:19:24.684Z,0.00
2023-02-22T02:20:24.354Z,0.00
2023-02-22T02:21:24.552Z,0.00
2023-02-22T02:22:24.592Z,0.00
2023-02-22T02:23:24.765Z,0.00
2023-02-22T02:24:24.864Z,0.00
2023-02-22T02:25:25.082Z,0.00
2023-02-22T02:26:25.051Z,0.00
2023-02-22T02:27:25.194Z,0.00
2023-02-22T02:28:25.338Z,0.00
2023-02-22T02:29:25.487Z,0.00
2023-02-22T02:30:25.696Z,0.00
2023-02-22T02:31:25.746Z,0.00
2023-02-22T02:32:25.873Z,0.00
2023-02-22T02:33:25.920Z,0.00
2023-02-22T02:34:26.043Z,0.00
2023-02-22T02:35:26.678Z,0.00
2023-02-22T02:36:26.223Z,0.00
2023-02-22T02:37:26.469Z,0.00
2023-02-22T02:38:26.530Z,0.00
2023-02-22T02:39:26.673Z,0.00
2023-02-22T02:40:26.773Z,0.00
2023-02-22T02:41:26.908Z,0.00
2023-02-22T02:42:27.117Z,0.00
2023-02-22T02:43:27.105Z,0.00
2023-02-22T02:44:27.238Z,0.00
2023-02-22T02:45:27.386Z,0.00
2023-02-22T02:46:27.547Z,0.00
2023-02-22T02:47:27.795Z,0.00
2023-02-22T02:48:27.749Z,0.00
2023-02-22T02:49:27.927Z,0.00
2023-02-22T02:50:28.016Z,0.00
2023-02-22T02:51:28.156Z,0.00
2023-02-22T02:52:28.330Z,0.00
2023-02-22T02:53:28.424Z,0.00
2023-02-22T02:54:28.517Z,0.00
2023-02-22T02:55:28.632Z,0.00
2023-02-22T02:56:28.724Z,0.00
2023-02-22T02:57:29.001Z,0.00
2023-02-22T02:58:29.102Z,0.00
2023-02-22T02:59:29.089Z,0.00
2023-02-22T03:00:29.185Z,0.00
2023-02-22T03:01:29.338Z,0.00
2023-02-22T03:02:29.465Z,0.00
2023-02-22T03:03:29.714Z,0.00
2023-02-22T03:04:29.745Z,0.00
2023-02-22T03:05:29.884Z,0.00
2023-02-22T03:06:30.054Z,0.00
2023-02-22T03:07:30.286Z,0.00
2023-02-22T03:08:30.271Z,0.00
2023-02-22T03:09:30.421Z,0.00
2023-02-22T03:10:30.593Z,0.00
2023-02-22T03:11:30.682Z,0.00
2023-02-22T03:12:30.960Z,0.00
2023-02-22T03:13:31.029Z,0.00
2023-02-22T03:14:31.002Z,0.00
2023-02-22T03:15:31.152Z,0.00
2023-02-22T03:16:31.333Z,0.00
2023-02-22T03:17:31.373Z,0.00
2023-02-22T03:18:31.858Z,0.00
2023-02-22T03:19:31.637Z,0.00
2023-02-22T03:20:32.068Z,0.00
2023-02-22T03:21:31.894Z,0.00
2023-02-22T03:22:31.991Z,0.00
2023-02-22T03:23:32.196Z,0.00
2023-02-22T03:24:32.269Z,0.00
2023-02-22T03:25:32.380Z,0.00
2023-02-22T03:26:32.509Z,0.00
2023-02-22T03:27:32.597Z,0.00
2023-02-22T03:28:32.834Z,0.00
2023-02-22T03:29:32.806Z,0.00
2023-02-22T03:30:33.010Z,0.00
2023-02-22T03:31:33.716Z,0.00
2023-02-22T03:32:33.199Z,0.00
2023-02-22T03:33:33.478Z,0.00
2023-02-22T03:34:33.407Z,0.00
2023-02-22T03:35:33.514Z,0.00
2023-02-22T03:36:33.656Z,0.00
2023-02-22T03:37:33.728Z,0.00
2023-02-22T03:38:33.885Z,0.00
2023-02-22T03:39:34.065Z,0.00
2023-02-22T03:40:34.116Z,0.00
2023-02-22T03:41:34.254Z,0.00
2023-02-22T03:42:34.406Z,0.00
2023-02-22T03:43:34.508Z,0.00
2023-02-22T03:44:34.785Z,0.00
2023-02-22T03:45:34.793Z,0.00
2023-02-22T03:46:34.957Z,0.00
2023-02-22T03:47:34.987Z,0.00
2023-02-22T03:48:35.135Z,0.00
2023-02-22T03:49:35.255Z,0.00
2023-02-22T03:50:35.363Z,0.00
2023-02-22T03:51:35.448Z,0.00
2023-02-22T03:52:35.593Z,0.00
2023-02-22T03:53:35.791Z,0.00
2023-02-22T03:54:35.919Z,0.00
2023-02-22T03:55:35.984Z,0.00
2023-02-22T03:56:36.113Z,0.00
2023-02-22T03:57:36.170Z,0.00
2023-02-22T03:58:36.347Z,0.00
2023-02-22T03:59:36.480Z,0.00
2023-02-22T04:00:36.557Z,0.00
2023-02-22T04:01:36.691Z,0.00
2023-02-22T04:02:36.771Z,0.00
2023-02-22T04:03:36.922Z,0.00
2023-02-22T04:04:37.181Z,0.00
2023-02-22T04:05:37.136Z,0.00
2023-02-22T04:06:37.298Z,0.00
2023-02-22T04:07:37.410Z,0.00
2023-02-22T04:08:37.491Z,0.00
2023-02-22T04:09:37.775Z,0.00
2023-02-22T04:10:37.770Z,0.00
2023-02-22T04:11:37.863Z,0.00
2023-02-22T04:12:37.966Z,0.00
2023-02-22T04:13:38.178Z,0.00
2023-02-22T04:14:38.314Z,0.00
2023-02-22T04:15:38.413Z,0.00
2023-02-22T04:16:38.449Z,0.00
2023-02-22T04:17:38.497Z,0.00
2023-02-22T04:18:38.727Z,0.00
2023-02-22T04:19:38.854Z,0.00
2023-02-22T04:20:39.030Z,0.00
2023-02-22T04:21:39.024Z,0.00
2023-02-22T04:22:39.155Z,0.00
2023-02-22T04:23:39.326Z,0.00
2023-02-22T04:24:39.413Z,0.00
2023-02-22T04:25:39.766Z,0.00
2023-02-22T04:26:39.664Z,0.00
2023-02-22T04:27:39.807Z,0.00
2023-02-22T04:28:39.931Z,0.00
2023-02-22T04:29:40.124Z,0.00
2023-02-22T04:30:40.248Z,0.00
2023-02-22T04:31:40.388Z,0.00
2023-02-22T04:32:40.374Z,0.00
2023-02-22T04:33:41.071Z,0.00
2023-02-22T04:34:40.678Z,0.00
2023-02-22T04:35:40.731Z,0.00
2023-02-22T04:36:40.958Z,0.00
2023-02-22T04:37:41.010Z,0.00
2023-02-22T04:38:41.105Z,0.00
2023-02-22T04:39:41.264Z,0.00
2023-02-22T04:40:41.369Z,0.00
2023-02-22T04:41:41.647Z,0.00
2023-02-22T04:42:41.632Z,0.00
2023-02-22T04:43:41.777Z,0.00
2023-02-22T04:44:41.878Z,0.00
2023-02-22T04:45:42.202Z,0.00
2023-02-22T04:46:42.266Z,0.00
2023-02-22T04:47:42.235Z,0.00
2023-02-22T04:48:42.373Z,0.00
2023-02-22T04:49:42.527Z,0.00
2023-02-22T04:50:42.716Z,0.00
2023-02-22T04:51:42.845Z,0.00
2023-02-22T04:52:42.942Z,0.00
2023-02-22T04:53:43.042Z,0.00
2023-02-22T04:54:43.142Z,0.00
2023-02-22T04:55:43.422Z,0.00
2023-02-22T04:56:43.352Z,0.00
2023-02-22T04:57:43.461Z,0.00
2023-02-22T04:58:43.580Z,0.00
2023-02-22T04:59:43.680Z,0.00
2023-02-22T05:00:43.910Z,0.00
2023-02-22T05:01:43.960Z,0.00
2023-02-22T05:02:44.118Z,0.00
2023-02-22T05:03:44.299Z,0.00
2023-02-22T05:04:44.409Z,0.00
2023-02-22T05:05:44.484Z,0.00
2023-02-22T05:06:44.705Z,0.00
2023-02-22T05:07:44.743Z,0.00
2023-02-22T05:08:44.968Z,0.00
2023-02-22T05:09:44.951Z,0.00
2023-02-22T05:10:45.052Z,0.00
2023-02-22T05:11:45.379Z,0.00
2023-02-22T05:12:45.317Z,0.00
2023-02-22T05:13:45.609Z,0.00
2023-02-22T05:14:45.582Z,0.00
2023-02-22T05:15:45.870Z,0.00
2023-02-22T05:16:45.792Z,0.00
2023-02-22T05:17:45.938Z,0.00
2023-02-22T05:18:46.014Z,0.00
2023-02-22T05:19:46.122Z,0.00
2023-02-22T05:20:46.495Z,0.00
2023-02-22T05:21:46.317Z,0.00
2023-02-22T05:22:46.534Z,0.00
2023-02-22T05:23:46.529Z,0.00
2023-02-22T05:24:46.623Z,0.00
2023-02-22T05:25:46.764Z,0.00
2023-02-22T05:26:46.913Z,0.00
2023-02-22T05:27:47.121Z,0.00
2023-02-22T05:28:47.129Z,0.00
2023-02-22T05:29:47.291Z,0.00
2023-02-22T05:30:47.421Z,0.00
2023-02-22T05:31:47.606Z,0.00
2023-02-22T05:32:47.741Z,0.00
2023-02-22T05:33:47.835Z,0.00
2023-02-22T05:34:47.865Z,0.00
2023-02-22T05:35:48.010Z,0.00
2023-02-22T05:36:48.202Z,0.00
2023-02-22T05:37:48.248Z,0.00
2023-02-22T05:38:48.420Z,0.00
2023-02-22T05:39:48.498Z,0.00
2023-02-22T05:40:48.612Z,0.00
2023-02-22T05:41:48.778Z,0.00
2023-02-22T05:42:49.138Z,0.00
2023-02-22T05:43:49.081Z,0.00
2023-02-22T05:44:49.067Z,0.00
2023-02-22T05:45:49.207Z,0.00
2023-02-22T05:46:49.329Z,0.00
2023-02-22T05:47:49.467Z,0.00
2023-02-22T05:48:49.629Z,0.00
2023-02-22T05:49:49.617Z,0.00
2023-02-22T05:50:49.774Z,0.00
2023-02-22T05:51:49.875Z,0.00
2023-02-22T05:52:49.967Z,0.00
2023-02-22T05:53:50.336Z,0.00
2023-02-22T05:54:50.221Z,0.00
2023-02-22T05:55:50.324Z,0.00
2023-02-22T05:56:50.425Z,0.00
2023-02-22T05:57:50.527Z,0.00
2023-02-22T05:58:50.691Z,0.00
2023-02-22T05:59:50.730Z,0.00
2023-02-22T06:00:50.823Z,0.00
2023-02-22T06:01:51.058Z,0.00
2023-02-22T06:02:51.061Z,0.00
2023-02-22T06:03:51.363Z,0.00
2023-02-22T06:04:51.354Z,0.00
2023-02-22T06:05:51.470Z,0.00
2023-02-22T06:06:51.601Z,0.00
2023-02-22T06:07:51.758Z,0.00
2023-02-22T06:08:51.947Z,0.00
2023-02-22T06:09:51.986Z,0.00
2023-02-22T06:10:52.167Z,0.00
2023-02-22T06:11:54.412Z,0.00
2023-02-22T06:12:52.381Z,0.00
2023-02-22T06:13:52.611Z,0.00
2023-02-22T06:14:52.613Z,0.00
2023-02-22T06:15:52.810Z,0.00
2023-02-22T06:16:52.845Z,0.00
2023-02-22T06:17:53.066Z,0.00
2023-02-22T06:18:54.053Z,0.00
2023-02-22T06:19:53.236Z,0.00
2023-02-22T06:20:53.381Z,0.00
2023-02-22T06:21:53.480Z,0.00
2023-02-22T06:22:53.638Z,0.00
2023-02-22T06:23:53.767Z,0.00
2023-02-22T06:24:55.074Z,0.00
2023-02-22T06:25:54.056Z,0.00
2023-02-22T06:26:54.064Z,0.00
2023-02-22T06:27:54.209Z,0.00
2023-02-22T06:28:54.311Z,0.00
2023-02-22T06:29:54.478Z,0.00
2023-02-22T06:30:54.510Z,5.62
2023-02-22T06:31:54.739Z,5.62
2023-02-22T06:32:54.819Z,5.62
2023-02-22T06:33:54.980Z,5.62
2023-02-22T06:34:55.146Z,5.62
2023-02-22T06:35:55.181Z,5.62
2023-02-22T06:36:55.285Z,5.62
2023-02-22T06:37:55.372Z,11.25
2023-02-22T06:38:55.484Z,11.25
2023-02-22T06:39:55.703Z,11.25
2023-02-22T06:40:55.715Z,11.25
2023-02-22T06:41:55.899Z,16.88
2023-02-22T06:42:55.954Z,16.88
2023-02-22T06:43:56.103Z,16.88
2023-02-22T06:44:56.332Z,22.50
2023-02-22T06:45:56.390Z,22.50
2023-02-22T06:46:56.522Z,22.50
2023-02-22T06:47:56.698Z,28.12
2023-02-22T06:48:56.762Z,28.12
2023-02-22T06:49:56.974Z,28.12
2023-02-22T06:50:57.054Z,33.75
2023-02-22T06:51:57.150Z,33.75
2023-02-22T06:52:57.300Z,33.75
2023-02-22T06:53:57.478Z,39.38
2023-02-22T06:54:57.627Z,39.38
2023-02-22T06:55:57.661Z,39.38
2023-02-22T06:56:57.770Z,45.00
2023-02-22T06:57:57.861Z,45.00
2023-02-22T06:58:57.998Z,45.00
2023-02-22T06:59:58.322Z,50.62
2023-02-22T07:00:58.248Z,50.62
2023-02-22T07:01:58.348Z,56.25
2023-02-22T07:02:58.498Z,56.25
2023-02-22T07:03:58.603Z,61.88
2023-02-22T07:04:58.805Z,61.88
2023-02-22T07:05:58.808Z,61.88
2023-02-22T07:06:58.929Z,67.50
2023-02-22T07:07:59.008Z,67.50
2023-02-22T07:08:59.172Z,73.12
2023-02-22T07:09:59.356Z,73.12
2023-02-22T07:10:59.378Z,78.75
2023-02-22T07:11:59.652Z,78.75
2023-02-22T07:12:59.666Z,84.38
2023-02-22T07:13:59.868Z,84.38
2023-02-22T07:14:59.858Z,90.00
2023-02-22T07:16:00.169Z,90.00
2023-02-22T07:17:00.288Z,95.62
2023-02-22T07:18:00.182Z,101.25
2023-02-22T07:19:00.297Z,101.25
2023-02-22T07:20:00.396Z,106.88
2023-02-22T07:21:00.487Z,112.50
2023-02-22T07:22:05.526Z,112.50
2023-02-22T07:23:00.756Z,112.50
2023-02-22T07:24:00.896Z,118.12
2023-02-22T07:25:01.040Z,118.12
2023-02-22T07:26:01.395Z,123.75
2023-02-22T07:27:01.298Z,123.75
2023-02-22T07:28:01.464Z,129.38
2023-02-22T07:29:01.559Z,129.38
2023-02-22T07:30:01.671Z,129.38
2023-02-22T07:31:01.775Z,135.00
2023-02-22T07:32:02.915Z,135.00
2023-02-22T07:33:02.088Z,140.62
2023-02-22T07:34:02.144Z,140.62
2023-02-22T07:35:02.235Z,140.62
2023-02-22T07:36:02.364Z,146.25
2023-02-22T07:37:02.623Z,146.25
2023-02-22T07:38:02.653Z,151.88
2023-02-22T07:39:02.752Z,157.50
2023-02-22T07:40:02.858Z,157.50
2023-02-22T07:41:03.000Z,163.12
2023-02-22T07:42:03.192Z,163.12
2023-02-22T07:43:04.713Z,168.75
2023-02-22T07:44:03.357Z,168.75
2023-02-22T07:45:03.453Z,168.75
2023-02-22T07:46:03.627Z,168.75
2023-02-22T07:47:03.799Z,174.38
2023-02-22T07:48:03.795Z,174.38
2023-02-22T07:49:03.880Z,174.38
2023-02-22T07:50:04.031Z,174.38
2023-02-22T07:51:04.136Z,180.00
2023-02-22T07:52:04.537Z,180.00
2023-02-22T07:53:04.475Z,185.62
2023-02-22T07:54:04.638Z,185.62
2023-02-22T07:55:04.680Z,185.62
2023-02-22T07:56:04.788Z,191.25
2023-02-22T07:57:05.007Z,191.25
2023-02-22T07:58:04.986Z,196.88
2023-02-22T07:59:05.137Z,196.88
2023-02-22T08:00:05.297Z,202.50
2023-02-22T08:01:05.400Z,202.50
2023-02-22T08:02:05.617Z,208.12
2023-02-22T08:03:05.809Z,208.12
2023-02-22T08:04:05.838Z,208.12
2023-02-22T08:05:05.834Z,213.75
2023-02-22T08:06:05.942Z,219.38
2023-02-22T08:07:06.087Z,225.00
2023-02-22T08:08:06.319Z,225.00
2023-02-22T08:09:07.314Z,230.62
2023-02-22T08:10:06.439Z,236.25
2023-02-22T08:11:06.584Z,236.25
2023-02-22T08:12:06.706Z,241.88
2023-02-22T08:13:06.833Z,241.88
2023-02-22T08:14:06.992Z,241.88
2023-02-22T08:15:09.073Z,247.50
2023-02-22T08:16:07.192Z,247.50
2023-02-22T08:17:08.818Z,247.50
2023-02-22T08:18:07.471Z,253.12
2023-02-22T08:19:07.550Z,258.75
2023-02-22T08:20:08.333Z,258.75
2023-02-22T08:21:07.843Z,258.75
2023-02-22T08:22:07.942Z,264.38
2023-02-22T08:23:08.086Z,264.38
2023-02-22T08:24:08.239Z,264.38
2023-02-22T08:25:08.382Z,264.38
2023-02-22T08:26:08.470Z,264.38
2023-02-22T08:27:08.646Z,270.00
2023-02-22T08:28:08.729Z,270.00
2023-02-22T08:29:08.877Z,275.62
2023-02-22T08:30:10.970Z,275.62
2023-02-22T08:31:09.282Z,275.62
2023-02-22T08:32:09.398Z,281.25
2023-02-22T08:33:09.482Z,281.25
2023-02-22T08:34:09.530Z,286.88
2023-02-22T08:35:09.577Z,292.50
2023-02-22T08:36:09.726Z,292.50
2023-02-22T08:37:09.826Z,298.12
2023-02-22T08:38:09.966Z,303.75
2023-02-22T08:39:10.192Z,303.75
2023-02-22T08:40:10.271Z,303.75
2023-02-22T08:41:10.285Z,309.38
2023-02-22T08:42:10.466Z,309.38
2023-02-22T08:43:10.567Z,309.38
2023-02-22T08:44:10.615Z,303.75
2023-02-22T08:45:11.122Z,303.75
2023-02-22T08:46:10.951Z,309.38
2023-02-22T08:47:11.012Z,309.38
2023-02-22T08:48:11.034Z,315.00
2023-02-22T08:49:11.170Z,315.00
2023-02-22T08:50:11.308Z,320.62
2023-02-22T08:51:11.438Z,326.25
2023-02-22T08:52:11.466Z,326.25
2023-02-22T08:53:11.628Z,326.25
2023-02-22T08:54:11.749Z,326.25
2023-02-22T08:55:11.777Z,331.88
2023-02-22T08:56:12.818Z,331.88
2023-02-22T08:57:12.021Z,331.88
2023-02-22T08:58:12.192Z,337.50
2023-02-22T08:59:12.224Z,343.12
2023-02-22T09:00:12.339Z,354.38
2023-02-22T09:01:14.057Z,365.62
2023-02-22T09:02:12.548Z,365.62
2023-02-22T09:03:12.635Z,376.88
2023-02-22T09:04:12.741Z,382.50
2023-02-22T09:05:12.852Z,371.25
2023-02-22T09:06:13.063Z,371.25
2023-02-22T09:07:13.052Z,382.50
2023-02-22T09:08:13.215Z,382.50
2023-02-22T09:09:13.298Z,393.75
2023-02-22T09:10:13.381Z,399.38
2023-02-22T09:11:13.692Z,410.62
2023-02-22T09:12:13.590Z,421.88
2023-02-22T09:13:13.700Z,416.25
2023-02-22T09:14:13.889Z,450.00
2023-02-22T09:15:13.938Z,444.38
2023-02-22T09:16:14.207Z,438.75
2023-02-22T09:17:14.161Z,444.38
2023-02-22T09:18:14.270Z,444.38
2023-02-22T09:19:14.379Z,433.12
2023-02-22T09:20:14.491Z,450.00
2023-02-22T09:21:15.011Z,450.00
2023-02-22T09:22:14.697Z,455.62
2023-02-22T09:23:14.820Z,450.00
2023-02-22T09:24:14.936Z,455.62
2023-02-22T09:25:17.245Z,450.00
2023-02-22T09:26:15.209Z,461.25
2023-02-22T09:27:15.270Z,461.25
2023-02-22T09:28:15.385Z,478.12
2023-02-22T09:29:15.487Z,483.75
2023-02-22T09:30:15.593Z,489.38
2023-02-22T09:31:16.162Z,489.38
2023-02-22T09:32:15.932Z,506.25
2023-02-22T09:33:16.130Z,523.12
2023-02-22T09:34:16.074Z,523.12
2023-02-22T09:35:16.128Z,534.38
2023-02-22T09:36:16.531Z,556.88
2023-02-22T09:37:16.334Z,528.75
2023-02-22T09:38:16.555Z,579.38
2023-02-22T09:39:16.609Z,579.38
2023-02-22T09:40:16.713Z,545.62
2023-02-22T09:41:17.182Z,568.12
2023-02-22T09:42:16.937Z,568.12
2023-02-22T09:43:17.124Z,556.88
2023-02-22T09:44:17.169Z,562.50
2023-02-22T09:45:17.273Z,590.62
2023-02-22T09:46:17.676Z,579.38
2023-02-22T09:47:17.535Z,585.00
2023-02-22T09:48:21.961Z,590.62
2023-02-22T09:49:17.705Z,573.75
2023-02-22T09:50:17.820Z,534.38
2023-02-22T09:51:18.201Z,568.12
2023-02-22T09:52:18.079Z,573.75
2023-02-22T09:53:18.273Z,596.25
2023-02-22T09:54:18.464Z,596.25
2023-02-22T09:55:18.483Z,601.88
2023-02-22T09:56:19.249Z,641.25
2023-02-22T09:57:18.749Z,545.62
2023-02-22T09:58:18.905Z,573.75
2023-02-22T09:59:19.025Z,601.88
2023-02-22T10:00:19.132Z,618.75
2023-02-22T10:01:19.273Z,596.25
2023-02-22T10:02:19.402Z,568.12
2023-02-22T10:03:21.396Z,551.25
2023-02-22T10:04:19.743Z,545.62
2023-02-22T10:05:19.842Z,568.12
2023-02-22T10:06:19.901Z,573.75
2023-02-22T10:07:20.038Z,573.75
2023-02-22T10:08:20.170Z,568.12
2023-02-22T10:09:20.341Z,585.00
2023-02-22T10:10:20.638Z,579.38
2023-02-22T10:11:20.556Z,556.88
2023-02-22T10:12:20.662Z,562.50
2023-02-22T10:13:20.789Z,545.62
2023-02-22T10:14:21.070Z,545.62
2023-02-22T10:15:21.046Z,545.62
2023-02-22T10:16:21.330Z,523.12
2023-02-22T10:17:21.294Z,511.88
2023-02-22T10:18:21.424Z,500.62
2023-02-22T10:19:21.673Z,489.38
2023-02-22T10:20:21.702Z,478.12
2023-02-22T10:21:21.857Z,466.88
2023-02-22T10:22:21.976Z,466.88
2023-02-22T10:23:22.124Z,466.88
2023-02-22T10:24:22.416Z,478.12
2023-02-22T10:25:22.379Z,489.38
2023-02-22T10:26:22.513Z,495.00
2023-02-22T10:27:22.658Z,517.50
2023-02-22T10:28:22.782Z,523.12
2023-02-22T10:29:23.000Z,528.75
2023-02-22T10:30:25.425Z,528.75
2023-02-22T10:31:23.285Z,528.75
2023-02-22T10:32:23.302Z,511.88
2023-02-22T10:33:23.413Z,523.12
2023-02-22T10:34:23.753Z,534.38
2023-02-22T10:35:23.687Z,517.50
2023-02-22T10:36:23.832Z,523.12
2023-02-22T10:37:24.006Z,528.75
2023-02-22T10:38:24.091Z,511.88
2023-02-22T10:39:24.350Z,511.88
2023-02-22T10:40:24.483Z,506.25
2023-02-22T10:41:24.534Z,506.25
2023-02-22T10:42:24.632Z,500.62
2023-02-22T10:43:24.774Z,495.00
2023-02-22T10:44:24.972Z,495.00
2023-02-22T10:45:25.090Z,489.38
2023-02-22T10:46:25.156Z,489.38
2023-02-22T10:47:25.291Z,495.00
2023-02-22T10:48:25.635Z,500.62
2023-02-22T10:49:25.544Z,500.62
2023-02-22T10:50:25.744Z,500.62
2023-02-22T10:51:25.821Z,500.62
2023-02-22T10:52:26.026Z,506.25
2023-02-22T10:53:26.061Z,517.50
2023-02-22T10:54:26.231Z,523.12
2023-02-22T10:55:26.624Z,534.38
2023-02-22T10:56:26.485Z,534.38
2023-02-22T10:57:26.590Z,540.00
2023-02-22T10:58:26.719Z,534.38
2023-02-22T10:59:26.858Z,540.00
2023-02-22T11:00:27.131Z,534.38
2023-02-22T11:01:27.204Z,534.38
2023-02-22T11:02:27.376Z,540.00
2023-02-22T11:03:27.371Z,534.38
2023-02-22T11:04:27.447Z,528.75
2023-02-22T11:05:27.598Z,517.50
2023-02-22T11:06:27.702Z,517.50
2023-02-22T11:07:27.927Z,523.12
2023-02-22T11:08:27.956Z,528.75
2023-02-22T11:09:28.088Z,528.75
2023-02-22T11:10:28.254Z,523.12
2023-02-22T11:11:28.386Z,528.75
2023-02-22T11:12:28.593Z,534.38
2023-02-22T11:13:28.781Z,545.62
2023-02-22T11:14:28.803Z,551.25
2023-02-22T11:15:28.971Z,551.25
2023-02-22T11:16:29.096Z,556.88
2023-02-22T11:17:29.284Z,556.88
2023-02-22T11:18:29.316Z,551.25
2023-02-22T11:19:29.457Z,556.88
2023-02-22T11:20:29.594Z,556.88
2023-02-22T11:21:29.748Z,556.88
2023-02-22T11:22:29.971Z,556.88
2023-02-22T11:23:30.011Z,551.25
2023-02-22T11:24:37.330Z,534.38
2023-02-22T11:25:31.279Z,528.75
2023-02-22T11:26:30.405Z,523.12
2023-02-22T11:27:30.609Z,523.12
2023-02-22T11:28:30.719Z,517.50
2023-02-22T11:29:30.892Z,517.50
2023-02-22T11:30:31.017Z,506.25
2023-02-22T11:31:31.075Z,506.25
2023-02-22T11:32:31.213Z,506.25
2023-02-22T11:33:31.345Z,506.25
2023-02-22T11:34:31.403Z,506.25
2023-02-22T11:35:31.500Z,506.25
2023-02-22T11:36:31.604Z,500.62
2023-02-22T11:37:31.762Z,495.00
2023-02-22T11:38:31.939Z,495.00
2023-02-22T11:39:32.023Z,495.00
2023-02-22T11:40:33.927Z,489.38
2023-02-22T11:41:32.253Z,495.00
2023-02-22T11:42:32.525Z,500.62
2023-02-22T11:43:32.668Z,506.25
2023-02-22T11:44:32.626Z,506.25
2023-02-22T11:45:32.716Z,500.62
2023-02-22T11:46:32.875Z,500.62
2023-02-22T11:47:33.085Z,495.00
2023-02-22T11:48:33.207Z,495.00
2023-02-22T11:49:33.261Z,500.62
2023-02-22T11:50:33.337Z,495.00
2023-02-22T11:51:33.466Z,489.38
2023-02-22T11:52:33.637Z,500.62
2023-02-22T11:53:33.855Z,500.62
2023-02-22T11:54:33.884Z,511.88
2023-02-22T11:55:42.862Z,511.88
2023-02-22T11:56:38.034Z,517.50
2023-02-22T11:57:34.210Z,517.50
2023-02-22T11:58:34.459Z,523.12
2023-02-22T11:59:34.506Z,528.75
2023-02-22T12:00:34.644Z,534.38
2023-02-22T12:01:34.784Z,534.38
2023-02-22T12:02:34.965Z,534.38
2023-02-22T12:03:35.169Z,545.62
2023-02-22T12:04:35.227Z,562.50
2023-02-22T12:05:35.304Z,568.12
2023-02-22T12:06:35.464Z,568.12
2023-02-22T12:07:35.580Z,579.38
2023-02-22T12:08:35.888Z,585.00
2023-02-22T12:09:35.875Z,579.38
2023-02-22T12:10:35.963Z,590.62
2023-02-22T12:11:36.115Z,596.25
2023-02-22T12:12:36.224Z,585.00
2023-02-22T12:13:36.475Z,585.00
2023-02-22T12:14:36.531Z,579.38
2023-02-22T12:15:36.701Z,562.50
2023-02-22T12:16:36.761Z,545.62
2023-02-22T12:17:36.922Z,534.38
2023-02-22T12:18:38.492Z,517.50
2023-02-22T12:19:37.141Z,511.88
2023-02-22T12:20:37.285Z,500.62
2023-02-22T12:21:37.431Z,489.38
2023-02-22T12:22:37.571Z,478.12
2023-02-22T12:23:37.714Z,478.12
2023-02-22T12:24:38.277Z,472.50
2023-02-22T12:25:37.990Z,472.50
2023-02-22T12:26:38.079Z,466.88
2023-02-22T12:27:38.180Z,472.50
2023-02-22T12:28:38.349Z,466.88
2023-02-22T12:29:39.636Z,472.50
2023-02-22T12:30:38.760Z,478.12
2023-02-22T12:31:38.944Z,478.12
2023-02-22T12:32:38.888Z,478.12
2023-02-22T12:33:38.985Z,478.12
2023-02-22T12:34:39.161Z,478.12
2023-02-22T12:35:39.371Z,472.50
2023-02-22T12:36:39.310Z,466.88
2023-02-22T12:37:39.454Z,461.25
2023-02-22T12:38:39.598Z,455.62
2023-02-22T12:39:52.214Z,450.00
2023-02-22T12:40:40.823Z,438.75
2023-02-22T12:41:39.963Z,433.12
2023-02-22T12:42:40.106Z,427.50
2023-02-22T12:43:40.258Z,427.50
2023-02-22T12:44:40.895Z,433.12
2023-02-22T12:45:40.506Z,433.12
2023-02-22T12:46:40.734Z,427.50
2023-02-22T12:47:40.794Z,438.75
2023-02-22T12:48:40.941Z,444.38
2023-02-22T12:49:41.161Z,444.38
2023-02-22T12:50:41.202Z,450.00
2023-02-22T12:51:41.341Z,455.62
2023-02-22T12:52:41.530Z,461.25
2023-02-22T12:53:41.619Z,461.25
2023-02-22T12:54:41.918Z,455.62
2023-02-22T12:55:41.881Z,455.62